sensor_id;sensor_type;location;lat;lon;timestamp;temperature;humidity
16655;DHT22;8441;51.344;7.022;2023-01-26T00:02:06;-1.20;99.90
16655;DHT22;8441;51.344;7.022;2023-01-26T00:04:33;-1.20;99.90
16655;DHT22;8441;51.344;7.022;2023-01-26T00:07:01;-1.30;99.90
16655;DHT22;8441;51.344;7.022;2023-01-26T00:09:28;-1.20;99.90
16655;DHT22;8441;51.344;7.022;2023-01-26T00:11:56;-1.20;99.90
16655;DHT22;8441;51.344;7.022;2023-01-26T00:14:23;-1.30;99.90
16655;DHT22;8441;51.344;7.022;2023-01-26T00:16:50;-1.20;99.90
16655;DHT22;8441;51.344;7.022;2023-01-26T00:19:18;-1.20;99.90
16655;DHT22;8441;51.344;7.022;2023-01-26T00:21:45;-1.20;99.90
16655;DHT22;8441;51.344;7.022;2023-01-26T00:24:14;-1.20;99.90
16655;DHT22;8441;51.344;7.022;2023-01-26T00:26:41;-1.20;99.90
16655;DHT22;8441;51.344;7.022;2023-01-26T00:29:08;-1.20;99.90
16655;DHT22;8441;51.344;7.022;2023-01-26T00:31:36;-1.20;99.90
16655;DHT22;8441;51.344;7.022;2023-01-26T00:34:03;-1.10;99.90
16655;DHT22;8441;51.344;7.022;2023-01-26T00:36:30;-1.10;99.90
16655;DHT22;8441;51.344;7.022;2023-01-26T00:38:57;-1.10;99.90
16655;DHT22;8441;51.344;7.022;2023-01-26T00:41:28;-1.10;99.90
16655;DHT22;8441;51.344;7.022;2023-01-26T00:44:12;-1.00;99.90
16655;DHT22;8441;51.344;7.022;2023-01-26T00:46:39;-1.00;99.90
16655;DHT22;8441;51.344;7.022;2023-01-26T00:49:07;-1.10;99.90
16655;DHT22;8441;51.344;7.022;2023-01-26T00:51:34;-1.10;99.90
16655;DHT22;8441;51.344;7.022;2023-01-26T00:54:01;-1.00;99.90
16655;DHT22;8441;51.344;7.022;2023-01-26T00:56:30;-1.10;99.90
16655;DHT22;8441;51.344;7.022;2023-01-26T00:58:57;-1.10;99.90
16655;DHT22;8441;51.344;7.022;2023-01-26T01:01:32;-1.20;99.90
16655;DHT22;8441;51.344;7.022;2023-01-26T01:03:59;-1.10;99.90
16655;DHT22;8441;51.344;7.022;2023-01-26T01:06:26;-1.10;99.90
16655;DHT22;8441;51.344;7.022;2023-01-26T01:08:56;-1.10;99.90
16655;DHT22;8441;51.344;7.022;2023-01-26T01:11:24;-1.10;99.90
16655;DHT22;8441;51.344;7.022;2023-01-26T01:13:52;-1.00;99.90
16655;DHT22;8441;51.344;7.022;2023-01-26T01:16:19;-1.00;99.90
16655;DHT22;8441;51.344;7.022;2023-01-26T01:18:47;-1.00;99.90
16655;DHT22;8441;51.344;7.022;2023-01-26T01:21:15;-1.00;99.90
16655;DHT22;8441;51.344;7.022;2023-01-26T01:23:43;-1.00;99.90
16655;DHT22;8441;51.344;7.022;2023-01-26T01:26:10;-1.00;99.90
16655;DHT22;8441;51.344;7.022;2023-01-26T01:28:38;-1.00;99.90
16655;DHT22;8441;51.344;7.022;2023-01-26T01:31:08;-1.00;99.90
16655;DHT22;8441;51.344;7.022;2023-01-26T01:33:36;-1.00;99.90
16655;DHT22;8441;51.344;7.022;2023-01-26T01:36:05;-0.90;99.90
16655;DHT22;8441;51.344;7.022;2023-01-26T01:38:32;-0.90;99.90
16655;DHT22;8441;51.344;7.022;2023-01-26T01:41:00;-0.90;99.90
16655;DHT22;8441;51.344;7.022;2023-01-26T01:43:28;-1.00;99.90
16655;DHT22;8441;51.344;7.022;2023-01-26T01:45:55;-1.00;99.90
16655;DHT22;8441;51.344;7.022;2023-01-26T01:48:30;-1.00;99.90
16655;DHT22;8441;51.344;7.022;2023-01-26T01:51:02;-1.00;99.90
16655;DHT22;8441;51.344;7.022;2023-01-26T01:53:32;-1.00;99.90
16655;DHT22;8441;51.344;7.022;2023-01-26T01:56:07;-1.00;99.90
16655;DHT22;8441;51.344;7.022;2023-01-26T01:58:37;-1.10;99.90
16655;DHT22;8441;51.344;7.022;2023-01-26T02:01:07;-1.10;99.90
16655;DHT22;8441;51.344;7.022;2023-01-26T02:03:36;-1.00;99.90
16655;DHT22;8441;51.344;7.022;2023-01-26T02:06:07;-1.00;99.90
16655;DHT22;8441;51.344;7.022;2023-01-26T02:08:38;-1.00;99.90
16655;DHT22;8441;51.344;7.022;2023-01-26T02:11:10;-1.00;99.90
16655;DHT22;8441;51.344;7.022;2023-01-26T02:13:40;-0.90;99.90
16655;DHT22;8441;51.344;7.022;2023-01-26T02:16:07;-0.90;99.90
16655;DHT22;8441;51.344;7.022;2023-01-26T02:18:38;-0.80;99.90
16655;DHT22;8441;51.344;7.022;2023-01-26T02:21:07;-0.90;99.90
16655;DHT22;8441;51.344;7.022;2023-01-26T02:23:43;-0.90;99.90
16655;DHT22;8441;51.344;7.022;2023-01-26T02:26:17;-0.90;99.90
16655;DHT22;8441;51.344;7.022;2023-01-26T02:28:46;-0.90;99.90
16655;DHT22;8441;51.344;7.022;2023-01-26T02:31:14;-0.90;99.90
16655;DHT22;8441;51.344;7.022;2023-01-26T02:33:42;-0.90;99.90
16655;DHT22;8441;51.344;7.022;2023-01-26T02:36:16;-0.90;99.90
16655;DHT22;8441;51.344;7.022;2023-01-26T02:38:50;-0.90;99.90
16655;DHT22;8441;51.344;7.022;2023-01-26T02:41:21;-1.00;99.90
16655;DHT22;8441;51.344;7.022;2023-01-26T02:44:08;-0.90;99.90
16655;DHT22;8441;51.344;7.022;2023-01-26T02:46:36;-0.90;99.90
16655;DHT22;8441;51.344;7.022;2023-01-26T02:49:05;-1.00;99.90
16655;DHT22;8441;51.344;7.022;2023-01-26T02:51:51;-1.00;99.90
16655;DHT22;8441;51.344;7.022;2023-01-26T02:54:19;-1.00;99.90
16655;DHT22;8441;51.344;7.022;2023-01-26T02:57:04;-0.90;99.90
16655;DHT22;8441;51.344;7.022;2023-01-26T02:59:31;-0.90;99.90
16655;DHT22;8441;51.344;7.022;2023-01-26T03:01:59;-0.90;99.90
16655;DHT22;8441;51.344;7.022;2023-01-26T03:04:26;-1.00;99.90
16655;DHT22;8441;51.344;7.022;2023-01-26T03:06:53;-0.90;99.90
16655;DHT22;8441;51.344;7.022;2023-01-26T03:09:21;-0.90;99.90
16655;DHT22;8441;51.344;7.022;2023-01-26T03:11:48;-0.90;99.90
16655;DHT22;8441;51.344;7.022;2023-01-26T03:14:17;-0.90;99.90
16655;DHT22;8441;51.344;7.022;2023-01-26T03:16:44;-1.00;99.90
16655;DHT22;8441;51.344;7.022;2023-01-26T03:19:13;-1.00;99.90
16655;DHT22;8441;51.344;7.022;2023-01-26T03:21:59;-0.90;99.90
16655;DHT22;8441;51.344;7.022;2023-01-26T03:24:44;-0.80;99.90
16655;DHT22;8441;51.344;7.022;2023-01-26T03:27:25;-0.90;99.90
16655;DHT22;8441;51.344;7.022;2023-01-26T03:29:54;-0.80;99.90
16655;DHT22;8441;51.344;7.022;2023-01-26T03:32:21;-0.80;99.90
16655;DHT22;8441;51.344;7.022;2023-01-26T03:34:48;-0.90;99.90
16655;DHT22;8441;51.344;7.022;2023-01-26T03:37:16;-0.80;99.90
16655;DHT22;8441;51.344;7.022;2023-01-26T03:39:48;-0.80;99.90
16655;DHT22;8441;51.344;7.022;2023-01-26T03:42:35;-0.80;99.90
16655;DHT22;8441;51.344;7.022;2023-01-26T03:45:21;-0.90;99.90
16655;DHT22;8441;51.344;7.022;2023-01-26T03:48:07;-0.90;99.90
16655;DHT22;8441;51.344;7.022;2023-01-26T03:50:52;-0.90;99.90
16655;DHT22;8441;51.344;7.022;2023-01-26T03:53:36;-0.90;99.90
16655;DHT22;8441;51.344;7.022;2023-01-26T03:56:21;-0.90;99.90
16655;DHT22;8441;51.344;7.022;2023-01-26T03:58:50;-0.90;99.90
16655;DHT22;8441;51.344;7.022;2023-01-26T04:01:20;-0.90;99.90
16655;DHT22;8441;51.344;7.022;2023-01-26T04:03:52;-0.90;99.90
16655;DHT22;8441;51.344;7.022;2023-01-26T04:06:43;-0.90;99.90
16655;DHT22;8441;51.344;7.022;2023-01-26T04:09:30;-0.90;99.90
16655;DHT22;8441;51.344;7.022;2023-01-26T04:11:57;-0.80;99.90
16655;DHT22;8441;51.344;7.022;2023-01-26T04:14:24;-0.80;99.90
16655;DHT22;8441;51.344;7.022;2023-01-26T04:17:11;-0.80;99.90
16655;DHT22;8441;51.344;7.022;2023-01-26T04:19:57;-0.80;99.90
16655;DHT22;8441;51.344;7.022;2023-01-26T04:22:42;-0.80;99.90
16655;DHT22;8441;51.344;7.022;2023-01-26T04:25:11;-0.90;99.90
16655;DHT22;8441;51.344;7.022;2023-01-26T04:27:39;-0.90;99.90
16655;DHT22;8441;51.344;7.022;2023-01-26T04:30:08;-0.90;99.90
16655;DHT22;8441;51.344;7.022;2023-01-26T04:32:37;-0.90;99.90
16655;DHT22;8441;51.344;7.022;2023-01-26T04:35:05;-0.90;99.90
16655;DHT22;8441;51.344;7.022;2023-01-26T04:37:33;-0.90;99.90
16655;DHT22;8441;51.344;7.022;2023-01-26T04:40:00;-0.90;99.90
16655;DHT22;8441;51.344;7.022;2023-01-26T04:42:28;-0.90;99.90
16655;DHT22;8441;51.344;7.022;2023-01-26T04:44:58;-0.90;99.90
16655;DHT22;8441;51.344;7.022;2023-01-26T04:47:26;-0.80;99.90
16655;DHT22;8441;51.344;7.022;2023-01-26T04:49:55;-0.80;99.90
16655;DHT22;8441;51.344;7.022;2023-01-26T04:52:22;-0.80;99.90
16655;DHT22;8441;51.344;7.022;2023-01-26T04:54:49;-0.80;99.90
16655;DHT22;8441;51.344;7.022;2023-01-26T04:57:17;-0.70;99.90
16655;DHT22;8441;51.344;7.022;2023-01-26T04:59:45;-0.80;99.90
16655;DHT22;8441;51.344;7.022;2023-01-26T05:02:15;-0.80;99.90
16655;DHT22;8441;51.344;7.022;2023-01-26T05:04:42;-0.80;99.90
16655;DHT22;8441;51.344;7.022;2023-01-26T05:07:11;-0.80;99.90
16655;DHT22;8441;51.344;7.022;2023-01-26T05:09:38;-0.70;99.90
16655;DHT22;8441;51.344;7.022;2023-01-26T05:12:05;-0.70;99.90
16655;DHT22;8441;51.344;7.022;2023-01-26T05:14:46;-0.70;99.90
16655;DHT22;8441;51.344;7.022;2023-01-26T05:17:13;-0.80;99.90
16655;DHT22;8441;51.344;7.022;2023-01-26T05:19:40;-0.80;99.90
16655;DHT22;8441;51.344;7.022;2023-01-26T05:22:08;-0.70;99.90
16655;DHT22;8441;51.344;7.022;2023-01-26T05:24:36;-0.70;99.90
16655;DHT22;8441;51.344;7.022;2023-01-26T05:27:03;-0.80;99.90
16655;DHT22;8441;51.344;7.022;2023-01-26T05:29:49;-0.80;99.90
16655;DHT22;8441;51.344;7.022;2023-01-26T05:32:17;-0.80;99.90
16655;DHT22;8441;51.344;7.022;2023-01-26T05:34:45;-0.80;99.90
16655;DHT22;8441;51.344;7.022;2023-01-26T05:37:12;-0.80;99.90
16655;DHT22;8441;51.344;7.022;2023-01-26T05:39:41;-0.80;99.90
16655;DHT22;8441;51.344;7.022;2023-01-26T05:42:08;-0.70;99.90
16655;DHT22;8441;51.344;7.022;2023-01-26T05:44:36;-0.70;99.90
16655;DHT22;8441;51.344;7.022;2023-01-26T05:47:03;-0.80;99.90
16655;DHT22;8441;51.344;7.022;2023-01-26T05:49:33;-0.80;99.90
16655;DHT22;8441;51.344;7.022;2023-01-26T05:52:07;-0.80;99.90
16655;DHT22;8441;51.344;7.022;2023-01-26T05:54:35;-0.70;99.90
16655;DHT22;8441;51.344;7.022;2023-01-26T05:57:04;-0.70;99.90
16655;DHT22;8441;51.344;7.022;2023-01-26T05:59:31;-0.80;99.90
16655;DHT22;8441;51.344;7.022;2023-01-26T06:01:59;-0.80;99.90
16655;DHT22;8441;51.344;7.022;2023-01-26T06:04:27;-0.80;99.90
16655;DHT22;8441;51.344;7.022;2023-01-26T06:06:56;-0.80;99.90
16655;DHT22;8441;51.344;7.022;2023-01-26T06:09:23;-0.80;99.90
16655;DHT22;8441;51.344;7.022;2023-01-26T06:11:50;-0.80;99.90
16655;DHT22;8441;51.344;7.022;2023-01-26T06:14:19;-0.80;99.90
16655;DHT22;8441;51.344;7.022;2023-01-26T06:16:46;-0.80;99.90
16655;DHT22;8441;51.344;7.022;2023-01-26T06:19:14;-0.80;99.90
16655;DHT22;8441;51.344;7.022;2023-01-26T06:21:41;-0.80;99.90
16655;DHT22;8441;51.344;7.022;2023-01-26T06:24:10;-0.80;99.90
16655;DHT22;8441;51.344;7.022;2023-01-26T06:26:37;-0.60;99.90
16655;DHT22;8441;51.344;7.022;2023-01-26T06:29:05;-0.70;99.90
16655;DHT22;8441;51.344;7.022;2023-01-26T06:31:36;-0.60;99.90
16655;DHT22;8441;51.344;7.022;2023-01-26T06:34:03;-0.70;99.90
16655;DHT22;8441;51.344;7.022;2023-01-26T06:36:36;-0.70;99.90
16655;DHT22;8441;51.344;7.022;2023-01-26T06:39:03;-0.70;99.90
16655;DHT22;8441;51.344;7.022;2023-01-26T06:41:30;-0.70;99.90
16655;DHT22;8441;51.344;7.022;2023-01-26T06:43:59;-0.70;99.90
16655;DHT22;8441;51.344;7.022;2023-01-26T06:46:26;-0.70;99.90
16655;DHT22;8441;51.344;7.022;2023-01-26T06:48:55;-0.70;99.90
16655;DHT22;8441;51.344;7.022;2023-01-26T06:54:30;-0.70;99.90
16655;DHT22;8441;51.344;7.022;2023-01-26T06:56:57;-0.70;99.90
16655;DHT22;8441;51.344;7.022;2023-01-26T06:59:25;-0.60;99.90
16655;DHT22;8441;51.344;7.022;2023-01-26T07:01:52;-0.50;99.90
16655;DHT22;8441;51.344;7.022;2023-01-26T07:04:24;-0.60;99.90
16655;DHT22;8441;51.344;7.022;2023-01-26T07:06:51;-0.60;99.90
16655;DHT22;8441;51.344;7.022;2023-01-26T07:09:18;-0.60;99.90
16655;DHT22;8441;51.344;7.022;2023-01-26T07:11:45;-0.60;99.90
16655;DHT22;8441;51.344;7.022;2023-01-26T07:14:12;-0.60;99.90
16655;DHT22;8441;51.344;7.022;2023-01-26T07:16:40;-0.60;99.90
16655;DHT22;8441;51.344;7.022;2023-01-26T07:19:07;-0.70;99.90
16655;DHT22;8441;51.344;7.022;2023-01-26T07:21:35;-0.70;99.90
16655;DHT22;8441;51.344;7.022;2023-01-26T07:24:04;-0.70;99.90
16655;DHT22;8441;51.344;7.022;2023-01-26T07:26:32;-0.60;99.90
16655;DHT22;8441;51.344;7.022;2023-01-26T07:29:00;-0.60;99.90
16655;DHT22;8441;51.344;7.022;2023-01-26T07:31:27;-0.60;99.90
16655;DHT22;8441;51.344;7.022;2023-01-26T07:33:54;-0.50;99.90
16655;DHT22;8441;51.344;7.022;2023-01-26T07:36:21;-0.50;99.90
16655;DHT22;8441;51.344;7.022;2023-01-26T07:38:50;-0.40;99.90
16655;DHT22;8441;51.344;7.022;2023-01-26T07:41:17;-0.50;99.90
16655;DHT22;8441;51.344;7.022;2023-01-26T07:43:44;-0.50;99.90
16655;DHT22;8441;51.344;7.022;2023-01-26T07:46:11;-0.40;99.90
16655;DHT22;8441;51.344;7.022;2023-01-26T07:48:38;-0.40;99.90
16655;DHT22;8441;51.344;7.022;2023-01-26T07:51:06;-0.40;99.90
16655;DHT22;8441;51.344;7.022;2023-01-26T07:53:36;-0.40;99.90
16655;DHT22;8441;51.344;7.022;2023-01-26T07:56:07;-0.30;99.90
16655;DHT22;8441;51.344;7.022;2023-01-26T07:58:34;-0.40;99.90
16655;DHT22;8441;51.344;7.022;2023-01-26T08:01:06;-0.30;99.90
16655;DHT22;8441;51.344;7.022;2023-01-26T08:03:36;-0.40;99.90
16655;DHT22;8441;51.344;7.022;2023-01-26T08:06:04;-0.30;99.90
16655;DHT22;8441;51.344;7.022;2023-01-26T08:08:32;-0.40;99.90
16655;DHT22;8441;51.344;7.022;2023-01-26T08:11:01;-0.30;99.90
16655;DHT22;8441;51.344;7.022;2023-01-26T08:13:30;-0.30;99.90
16655;DHT22;8441;51.344;7.022;2023-01-26T08:16:01;-0.30;99.90
16655;DHT22;8441;51.344;7.022;2023-01-26T08:18:28;-0.20;99.90
16655;DHT22;8441;51.344;7.022;2023-01-26T08:20:57;-0.20;99.90
16655;DHT22;8441;51.344;7.022;2023-01-26T08:23:26;-0.20;99.90
16655;DHT22;8441;51.344;7.022;2023-01-26T08:25:54;-0.10;99.90
16655;DHT22;8441;51.344;7.022;2023-01-26T08:28:21;-0.10;99.90
16655;DHT22;8441;51.344;7.022;2023-01-26T08:30:50;0.00;99.90
16655;DHT22;8441;51.344;7.022;2023-01-26T08:33:17;0.10;99.90
16655;DHT22;8441;51.344;7.022;2023-01-26T08:35:44;0.10;99.90
16655;DHT22;8441;51.344;7.022;2023-01-26T08:38:11;0.10;99.90
16655;DHT22;8441;51.344;7.022;2023-01-26T08:40:39;0.10;99.90
16655;DHT22;8441;51.344;7.022;2023-01-26T08:43:06;0.20;99.90
16655;DHT22;8441;51.344;7.022;2023-01-26T08:45:33;0.10;99.90
16655;DHT22;8441;51.344;7.022;2023-01-26T08:48:04;0.10;99.90
16655;DHT22;8441;51.344;7.022;2023-01-26T08:50:31;0.00;99.90
16655;DHT22;8441;51.344;7.022;2023-01-26T08:52:58;0.10;99.90
16655;DHT22;8441;51.344;7.022;2023-01-26T08:55:26;0.20;99.90
16655;DHT22;8441;51.344;7.022;2023-01-26T08:57:54;0.30;99.90
16655;DHT22;8441;51.344;7.022;2023-01-26T09:00:23;0.20;99.90
16655;DHT22;8441;51.344;7.022;2023-01-26T09:02:52;0.20;99.90
16655;DHT22;8441;51.344;7.022;2023-01-26T09:05:25;0.20;99.90
16655;DHT22;8441;51.344;7.022;2023-01-26T09:07:52;0.30;99.90
16655;DHT22;8441;51.344;7.022;2023-01-26T09:10:19;0.20;99.90
16655;DHT22;8441;51.344;7.022;2023-01-26T09:12:46;0.20;99.90
16655;DHT22;8441;51.344;7.022;2023-01-26T09:15:14;0.20;99.90
16655;DHT22;8441;51.344;7.022;2023-01-26T09:17:41;0.20;99.90
16655;DHT22;8441;51.344;7.022;2023-01-26T09:20:09;0.30;99.90
16655;DHT22;8441;51.344;7.022;2023-01-26T09:22:37;0.30;99.90
16655;DHT22;8441;51.344;7.022;2023-01-26T09:25:05;0.40;99.90
16655;DHT22;8441;51.344;7.022;2023-01-26T09:27:33;0.40;99.90
16655;DHT22;8441;51.344;7.022;2023-01-26T09:30:01;0.50;99.90
16655;DHT22;8441;51.344;7.022;2023-01-26T09:32:28;0.50;99.90
16655;DHT22;8441;51.344;7.022;2023-01-26T09:34:55;0.50;99.90
16655;DHT22;8441;51.344;7.022;2023-01-26T09:37:23;0.50;99.90
16655;DHT22;8441;51.344;7.022;2023-01-26T09:39:51;0.50;99.90
16655;DHT22;8441;51.344;7.022;2023-01-26T09:42:42;0.50;99.90
16655;DHT22;8441;51.344;7.022;2023-01-26T09:45:32;0.60;99.90
16655;DHT22;8441;51.344;7.022;2023-01-26T09:48:13;0.50;99.90
16655;DHT22;8441;51.344;7.022;2023-01-26T09:50:45;0.60;99.90
16655;DHT22;8441;51.344;7.022;2023-01-26T09:53:18;0.50;99.90
16655;DHT22;8441;51.344;7.022;2023-01-26T09:55:47;0.70;99.90
16655;DHT22;8441;51.344;7.022;2023-01-26T09:58:21;0.60;99.90
16655;DHT22;8441;51.344;7.022;2023-01-26T10:00:56;0.70;99.90
16655;DHT22;8441;51.344;7.022;2023-01-26T10:03:29;0.70;99.90
16655;DHT22;8441;51.344;7.022;2023-01-26T10:06:04;0.70;99.90
16655;DHT22;8441;51.344;7.022;2023-01-26T10:08:39;0.80;99.90
16655;DHT22;8441;51.344;7.022;2023-01-26T10:11:16;0.80;99.90
16655;DHT22;8441;51.344;7.022;2023-01-26T10:13:49;0.70;99.90
16655;DHT22;8441;51.344;7.022;2023-01-26T10:16:18;0.70;99.90
16655;DHT22;8441;51.344;7.022;2023-01-26T10:18:51;0.80;99.90
16655;DHT22;8441;51.344;7.022;2023-01-26T10:21:21;0.80;99.90
16655;DHT22;8441;51.344;7.022;2023-01-26T10:23:51;0.80;99.90
16655;DHT22;8441;51.344;7.022;2023-01-26T10:26:19;0.90;99.90
16655;DHT22;8441;51.344;7.022;2023-01-26T10:28:49;0.90;99.90
16655;DHT22;8441;51.344;7.022;2023-01-26T10:31:20;0.80;99.90
16655;DHT22;8441;51.344;7.022;2023-01-26T10:33:50;0.80;99.90
16655;DHT22;8441;51.344;7.022;2023-01-26T10:36:18;0.70;99.90
16655;DHT22;8441;51.344;7.022;2023-01-26T10:38:45;0.70;99.90
16655;DHT22;8441;51.344;7.022;2023-01-26T10:41:24;0.70;99.90
16655;DHT22;8441;51.344;7.022;2023-01-26T10:43:54;0.70;99.90
16655;DHT22;8441;51.344;7.022;2023-01-26T10:46:28;0.80;99.90
16655;DHT22;8441;51.344;7.022;2023-01-26T10:48:58;0.70;99.90
16655;DHT22;8441;51.344;7.022;2023-01-26T10:51:28;0.70;99.90
16655;DHT22;8441;51.344;7.022;2023-01-26T10:54:19;0.80;99.90
16655;DHT22;8441;51.344;7.022;2023-01-26T10:56:49;0.90;99.90
16655;DHT22;8441;51.344;7.022;2023-01-26T10:59:26;0.90;99.90
16655;DHT22;8441;51.344;7.022;2023-01-26T11:01:57;0.90;99.90
16655;DHT22;8441;51.344;7.022;2023-01-26T11:04:26;0.90;99.90
16655;DHT22;8441;51.344;7.022;2023-01-26T11:06:53;0.80;99.90
16655;DHT22;8441;51.344;7.022;2023-01-26T11:09:24;0.90;99.90
16655;DHT22;8441;51.344;7.022;2023-01-26T11:11:57;0.90;99.90
16655;DHT22;8441;51.344;7.022;2023-01-26T11:14:25;1.00;99.90
16655;DHT22;8441;51.344;7.022;2023-01-26T11:17:00;1.10;99.90
16655;DHT22;8441;51.344;7.022;2023-01-26T11:19:53;1.10;99.90
16655;DHT22;8441;51.344;7.022;2023-01-26T11:22:30;1.20;99.90
16655;DHT22;8441;51.344;7.022;2023-01-26T11:25:06;1.10;99.90
16655;DHT22;8441;51.344;7.022;2023-01-26T11:27:48;1.10;99.90
16655;DHT22;8441;51.344;7.022;2023-01-26T11:30:46;1.30;99.90
16655;DHT22;8441;51.344;7.022;2023-01-26T11:33:26;1.30;99.90
16655;DHT22;8441;51.344;7.022;2023-01-26T11:36:02;1.40;99.90
16655;DHT22;8441;51.344;7.022;2023-01-26T11:38:38;1.40;99.90
16655;DHT22;8441;51.344;7.022;2023-01-26T11:41:27;1.40;99.90
16655;DHT22;8441;51.344;7.022;2023-01-26T11:44:32;1.40;99.90
16655;DHT22;8441;51.344;7.022;2023-01-26T11:50:20;1.50;99.90
16655;DHT22;8441;51.344;7.022;2023-01-26T11:52:59;1.30;99.90
16655;DHT22;8441;51.344;7.022;2023-01-26T11:55:41;1.30;99.90
16655;DHT22;8441;51.344;7.022;2023-01-26T11:58:24;1.20;99.90
16655;DHT22;8441;51.344;7.022;2023-01-26T12:00:56;1.30;99.90
16655;DHT22;8441;51.344;7.022;2023-01-26T12:03:29;1.20;99.90
16655;DHT22;8441;51.344;7.022;2023-01-26T12:06:03;1.20;99.90
16655;DHT22;8441;51.344;7.022;2023-01-26T12:08:37;1.20;99.90
16655;DHT22;8441;51.344;7.022;2023-01-26T12:11:08;1.10;99.90
16655;DHT22;8441;51.344;7.022;2023-01-26T12:13:57;1.00;99.90
16655;DHT22;8441;51.344;7.022;2023-01-26T12:16:34;1.10;99.90
16655;DHT22;8441;51.344;7.022;2023-01-26T12:19:09;1.10;99.90
16655;DHT22;8441;51.344;7.022;2023-01-26T12:21:43;1.20;99.90
16655;DHT22;8441;51.344;7.022;2023-01-26T12:24:16;1.20;99.90
16655;DHT22;8441;51.344;7.022;2023-01-26T12:26:48;1.30;99.90
16655;DHT22;8441;51.344;7.022;2023-01-26T12:29:20;1.40;99.90
16655;DHT22;8441;51.344;7.022;2023-01-26T12:31:52;1.40;99.90
16655;DHT22;8441;51.344;7.022;2023-01-26T12:34:24;1.40;99.90
16655;DHT22;8441;51.344;7.022;2023-01-26T12:37:04;1.50;99.90
16655;DHT22;8441;51.344;7.022;2023-01-26T12:39:38;1.40;99.90
16655;DHT22;8441;51.344;7.022;2023-01-26T12:42:19;1.40;99.90
16655;DHT22;8441;51.344;7.022;2023-01-26T12:44:52;1.40;99.90
16655;DHT22;8441;51.344;7.022;2023-01-26T12:47:26;1.40;99.90
16655;DHT22;8441;51.344;7.022;2023-01-26T12:49:58;1.40;99.90
16655;DHT22;8441;51.344;7.022;2023-01-26T12:52:31;1.50;99.90
16655;DHT22;8441;51.344;7.022;2023-01-26T12:55:05;1.50;99.90
16655;DHT22;8441;51.344;7.022;2023-01-26T12:57:39;1.50;99.90
16655;DHT22;8441;51.344;7.022;2023-01-26T13:00:19;1.60;99.90
16655;DHT22;8441;51.344;7.022;2023-01-26T13:02:49;1.40;99.90
16655;DHT22;8441;51.344;7.022;2023-01-26T13:05:29;1.40;99.90
16655;DHT22;8441;51.344;7.022;2023-01-26T13:07:58;1.40;99.90
16655;DHT22;8441;51.344;7.022;2023-01-26T13:10:43;1.30;99.90
16655;DHT22;8441;51.344;7.022;2023-01-26T13:13:29;1.40;99.90
16655;DHT22;8441;51.344;7.022;2023-01-26T13:16:31;1.40;99.90
16655;DHT22;8441;51.344;7.022;2023-01-26T13:18:59;1.30;99.90
16655;DHT22;8441;51.344;7.022;2023-01-26T13:21:27;1.30;99.90
16655;DHT22;8441;51.344;7.022;2023-01-26T13:23:56;1.30;99.90
16655;DHT22;8441;51.344;7.022;2023-01-26T13:29:30;1.40;99.90
16655;DHT22;8441;51.344;7.022;2023-01-26T13:32:01;1.30;99.90
16655;DHT22;8441;51.344;7.022;2023-01-26T13:34:50;1.30;99.90
16655;DHT22;8441;51.344;7.022;2023-01-26T13:37:25;1.30;99.90
16655;DHT22;8441;51.344;7.022;2023-01-26T13:39:58;1.40;99.90
16655;DHT22;8441;51.344;7.022;2023-01-26T13:42:30;1.40;99.90
16655;DHT22;8441;51.344;7.022;2023-01-26T13:45:02;1.40;99.90
16655;DHT22;8441;51.344;7.022;2023-01-26T13:47:34;1.40;99.90
16655;DHT22;8441;51.344;7.022;2023-01-26T13:50:21;1.50;99.90
16655;DHT22;8441;51.344;7.022;2023-01-26T13:52:48;1.50;99.90
16655;DHT22;8441;51.344;7.022;2023-01-26T13:55:22;1.50;99.90
16655;DHT22;8441;51.344;7.022;2023-01-26T13:58:11;1.50;99.90
16655;DHT22;8441;51.344;7.022;2023-01-26T14:00:38;1.50;99.90
16655;DHT22;8441;51.344;7.022;2023-01-26T14:03:19;1.60;99.90
16655;DHT22;8441;51.344;7.022;2023-01-26T14:05:51;1.50;99.90
16655;DHT22;8441;51.344;7.022;2023-01-26T14:08:19;1.60;99.90
16655;DHT22;8441;51.344;7.022;2023-01-26T14:10:50;1.50;99.90
16655;DHT22;8441;51.344;7.022;2023-01-26T14:13:21;1.50;99.90
16655;DHT22;8441;51.344;7.022;2023-01-26T14:15:56;1.50;99.90
16655;DHT22;8441;51.344;7.022;2023-01-26T14:18:25;1.40;99.90
16655;DHT22;8441;51.344;7.022;2023-01-26T14:20:58;1.30;99.90
16655;DHT22;8441;51.344;7.022;2023-01-26T14:23:27;1.40;99.90
16655;DHT22;8441;51.344;7.022;2023-01-26T14:26:02;1.40;99.90
16655;DHT22;8441;51.344;7.022;2023-01-26T14:28:32;1.40;99.90
16655;DHT22;8441;51.344;7.022;2023-01-26T14:31:04;1.40;99.90
16655;DHT22;8441;51.344;7.022;2023-01-26T14:33:32;1.50;99.90
16655;DHT22;8441;51.344;7.022;2023-01-26T14:36:01;1.50;99.90
16655;DHT22;8441;51.344;7.022;2023-01-26T14:38:29;1.50;99.90
16655;DHT22;8441;51.344;7.022;2023-01-26T14:41:14;1.50;99.90
16655;DHT22;8441;51.344;7.022;2023-01-26T14:43:41;1.40;99.90
16655;DHT22;8441;51.344;7.022;2023-01-26T14:46:11;1.50;99.90
16655;DHT22;8441;51.344;7.022;2023-01-26T14:48:43;1.50;99.90
16655;DHT22;8441;51.344;7.022;2023-01-26T14:51:18;1.60;99.90
16655;DHT22;8441;51.344;7.022;2023-01-26T14:53:50;1.60;99.90
16655;DHT22;8441;51.344;7.022;2023-01-26T14:56:21;1.60;99.90
16655;DHT22;8441;51.344;7.022;2023-01-26T14:58:50;1.70;99.90
16655;DHT22;8441;51.344;7.022;2023-01-26T15:01:23;1.60;99.90
16655;DHT22;8441;51.344;7.022;2023-01-26T15:03:58;1.60;99.90
16655;DHT22;8441;51.344;7.022;2023-01-26T15:06:27;1.60;99.90
16655;DHT22;8441;51.344;7.022;2023-01-26T15:09:00;1.60;99.90
16655;DHT22;8441;51.344;7.022;2023-01-26T15:11:33;1.70;99.90
16655;DHT22;8441;51.344;7.022;2023-01-26T15:14:33;1.70;99.90
16655;DHT22;8441;51.344;7.022;2023-01-26T15:17:00;1.60;99.90
16655;DHT22;8441;51.344;7.022;2023-01-26T15:19:31;1.70;99.90
16655;DHT22;8441;51.344;7.022;2023-01-26T15:21:59;1.60;99.90
16655;DHT22;8441;51.344;7.022;2023-01-26T15:24:26;1.60;99.90
16655;DHT22;8441;51.344;7.022;2023-01-26T15:27:04;1.70;99.90
16655;DHT22;8441;51.344;7.022;2023-01-26T15:29:32;1.70;99.90
16655;DHT22;8441;51.344;7.022;2023-01-26T15:32:00;1.70;99.90
16655;DHT22;8441;51.344;7.022;2023-01-26T15:34:33;1.70;99.90
16655;DHT22;8441;51.344;7.022;2023-01-26T15:37:02;1.70;99.90
16655;DHT22;8441;51.344;7.022;2023-01-26T15:39:30;1.80;99.90
16655;DHT22;8441;51.344;7.022;2023-01-26T15:42:09;1.80;99.90
16655;DHT22;8441;51.344;7.022;2023-01-26T15:44:38;1.80;99.90
16655;DHT22;8441;51.344;7.022;2023-01-26T15:47:08;1.80;99.90
16655;DHT22;8441;51.344;7.022;2023-01-26T15:49:36;1.80;99.90
16655;DHT22;8441;51.344;7.022;2023-01-26T15:52:08;1.70;99.90
16655;DHT22;8441;51.344;7.022;2023-01-26T15:54:38;1.80;99.90
16655;DHT22;8441;51.344;7.022;2023-01-26T15:57:07;1.80;99.90
16655;DHT22;8441;51.344;7.022;2023-01-26T15:59:35;1.80;99.90
16655;DHT22;8441;51.344;7.022;2023-01-26T16:02:05;1.80;99.90
16655;DHT22;8441;51.344;7.022;2023-01-26T16:04:36;1.90;99.90
16655;DHT22;8441;51.344;7.022;2023-01-26T16:07:07;1.90;99.90
16655;DHT22;8441;51.344;7.022;2023-01-26T16:09:35;1.90;99.90
16655;DHT22;8441;51.344;7.022;2023-01-26T16:12:03;1.90;99.90
16655;DHT22;8441;51.344;7.022;2023-01-26T16:14:31;2.00;99.90
16655;DHT22;8441;51.344;7.022;2023-01-26T16:16:58;2.00;99.90
16655;DHT22;8441;51.344;7.022;2023-01-26T16:19:26;2.10;99.90
16655;DHT22;8441;51.344;7.022;2023-01-26T16:21:53;2.00;99.90
16655;DHT22;8441;51.344;7.022;2023-01-26T16:24:20;2.10;99.90
16655;DHT22;8441;51.344;7.022;2023-01-26T16:26:47;2.10;99.90
16655;DHT22;8441;51.344;7.022;2023-01-26T16:29:14;2.10;99.90